« Back
NWS Peachtree City, Ga » Text Product » AHN Terminal Aerodrome Forecast


Printer-friendly Version
Current Version              Previous Versions:   1  2  3  4  5  6  7  8  9  

Terminal Aerodrome Forecast

745
FTUS42 KFFC 281000 AAB
TAFAHN
TAF AMD
KAHN 281014Z 2810/2906 25005KT P6SM VCSH SCT035 BKN060
      TEMPO 2810/2814 5SM -SHRA BKN035
     FM281500 29008G16KT P6SM VCSH BKN040
     FM281900 31010G18KT P6SM SCT050
     FM290100 32008KT P6SM SCT100=



USA.gov is the U.S. government's official web portal to all federal, state and local government web resources and services.